sensor_id;sensor_type;location;lat;lon;timestamp;temperature;humidity
66096;SHT31;53861;53.422;14.530;2023-12-20T00:01:23;7.14;99.99
66096;SHT31;53861;53.422;14.530;2023-12-20T00:03:50;7.11;99.98
66096;SHT31;53861;53.422;14.530;2023-12-20T00:06:20;7.13;99.99
66096;SHT31;53861;53.422;14.530;2023-12-20T00:09:03;7.18;99.99
66096;SHT31;53861;53.422;14.530;2023-12-20T00:11:35;7.18;99.99
66096;SHT31;53861;53.422;14.530;2023-12-20T00:14:02;7.20;99.99
66096;SHT31;53861;53.422;14.530;2023-12-20T00:16:30;7.23;99.99
66096;SHT31;53861;53.422;14.530;2023-12-20T00:19:03;7.20;99.99
66096;SHT31;53861;53.422;14.530;2023-12-20T00:21:30;7.21;99.99
66096;SHT31;53861;53.422;14.530;2023-12-20T00:23:59;7.18;99.99
66096;SHT31;53861;53.422;14.530;2023-12-20T00:26:27;7.04;99.99
66096;SHT31;53861;53.422;14.530;2023-12-20T00:28:55;7.15;99.99
66096;SHT31;53861;53.422;14.530;2023-12-20T00:31:22;7.20;99.99
66096;SHT31;53861;53.422;14.530;2023-12-20T00:33:55;7.06;99.91
66096;SHT31;53861;53.422;14.530;2023-12-20T00:36:26;6.97;99.85
66096;SHT31;53861;53.422;14.530;2023-12-20T00:38:56;6.92;99.99
66096;SHT31;53861;53.422;14.530;2023-12-20T00:41:27;6.93;99.99
66096;SHT31;53861;53.422;14.530;2023-12-20T00:43:58;6.96;99.99
66096;SHT31;53861;53.422;14.530;2023-12-20T00:46:27;6.87;99.95
66096;SHT31;53861;53.422;14.530;2023-12-20T00:48:59;6.80;98.98
66096;SHT31;53861;53.422;14.530;2023-12-20T00:51:32;6.82;99.40
66096;SHT31;53861;53.422;14.530;2023-12-20T00:54:07;6.80;99.24
66096;SHT31;53861;53.422;14.530;2023-12-20T00:56:38;6.79;99.12
66096;SHT31;53861;53.422;14.530;2023-12-20T00:59:08;6.72;99.13
66096;SHT31;53861;53.422;14.530;2023-12-20T01:01:40;6.71;99.00
66096;SHT31;53861;53.422;14.530;2023-12-20T01:04:10;6.62;98.94
66096;SHT31;53861;53.422;14.530;2023-12-20T01:06:45;6.56;99.04
66096;SHT31;53861;53.422;14.530;2023-12-20T01:09:12;6.50;99.09
66096;SHT31;53861;53.422;14.530;2023-12-20T01:11:53;6.49;99.22
66096;SHT31;53861;53.422;14.530;2023-12-20T01:14:24;6.49;99.16
66096;SHT31;53861;53.422;14.530;2023-12-20T01:16:54;6.45;99.32
66096;SHT31;53861;53.422;14.530;2023-12-20T01:19:27;6.41;99.36
66096;SHT31;53861;53.422;14.530;2023-12-20T01:21:58;6.39;99.38
66096;SHT31;53861;53.422;14.530;2023-12-20T01:24:26;6.33;99.44
66096;SHT31;53861;53.422;14.530;2023-12-20T01:26:59;6.31;99.52
66096;SHT31;53861;53.422;14.530;2023-12-20T01:29:28;6.28;99.63
66096;SHT31;53861;53.422;14.530;2023-12-20T01:31:58;6.22;99.68
66096;SHT31;53861;53.422;14.530;2023-12-20T01:34:28;6.21;99.64
66096;SHT31;53861;53.422;14.530;2023-12-20T01:37:04;6.22;99.76
66096;SHT31;53861;53.422;14.530;2023-12-20T01:39:41;6.14;99.71
66096;SHT31;53861;53.422;14.530;2023-12-20T01:42:25;6.10;99.70
66096;SHT31;53861;53.422;14.530;2023-12-20T01:45:07;6.02;99.70
66096;SHT31;53861;53.422;14.530;2023-12-20T01:47:39;6.01;99.74
66096;SHT31;53861;53.422;14.530;2023-12-20T01:50:09;5.98;99.62
66096;SHT31;53861;53.422;14.530;2023-12-20T01:52:42;5.97;99.68
66096;SHT31;53861;53.422;14.530;2023-12-20T01:55:15;5.95;99.73
66096;SHT31;53861;53.422;14.530;2023-12-20T01:57:52;5.88;99.67
66096;SHT31;53861;53.422;14.530;2023-12-20T02:00:28;5.90;99.66
66096;SHT31;53861;53.422;14.530;2023-12-20T02:03:01;5.83;99.42
66096;SHT31;53861;53.422;14.530;2023-12-20T02:05:34;5.78;99.62
66096;SHT31;53861;53.422;14.530;2023-12-20T02:08:12;5.77;99.70
66096;SHT31;53861;53.422;14.530;2023-12-20T02:10:43;5.74;99.81
66096;SHT31;53861;53.422;14.530;2023-12-20T02:13:14;5.70;99.86
66096;SHT31;53861;53.422;14.530;2023-12-20T02:16:00;5.67;99.73
66096;SHT31;53861;53.422;14.530;2023-12-20T02:18:28;5.61;99.96
66096;SHT31;53861;53.422;14.530;2023-12-20T02:21:00;5.63;99.63
66096;SHT31;53861;53.422;14.530;2023-12-20T02:23:32;5.66;99.93
66096;SHT31;53861;53.422;14.530;2023-12-20T02:26:06;5.70;99.60
66096;SHT31;53861;53.422;14.530;2023-12-20T02:28:40;5.63;99.36
66096;SHT31;53861;53.422;14.530;2023-12-20T02:31:13;5.60;99.47
66096;SHT31;53861;53.422;14.530;2023-12-20T02:33:41;5.54;99.52
66096;SHT31;53861;53.422;14.530;2023-12-20T02:36:12;5.51;99.51
66096;SHT31;53861;53.422;14.530;2023-12-20T02:38:56;5.51;99.65
66096;SHT31;53861;53.422;14.530;2023-12-20T02:41:26;5.51;99.46
66096;SHT31;53861;53.422;14.530;2023-12-20T02:43:55;5.47;99.49
66096;SHT31;53861;53.422;14.530;2023-12-20T02:46:30;5.42;99.64
66096;SHT31;53861;53.422;14.530;2023-12-20T02:48:58;5.43;99.69
66096;SHT31;53861;53.422;14.530;2023-12-20T02:51:26;5.39;99.74
66096;SHT31;53861;53.422;14.530;2023-12-20T02:53:55;5.46;99.99
66096;SHT31;53861;53.422;14.530;2023-12-20T02:56:22;5.44;99.99
66096;SHT31;53861;53.422;14.530;2023-12-20T02:58:51;5.56;99.99
66096;SHT31;53861;53.422;14.530;2023-12-20T03:01:20;5.59;99.99
66096;SHT31;53861;53.422;14.530;2023-12-20T03:03:50;5.54;99.99
66096;SHT31;53861;53.422;14.530;2023-12-20T03:06:19;5.60;99.99
66096;SHT31;53861;53.422;14.530;2023-12-20T03:08:52;5.59;99.97
66096;SHT31;53861;53.422;14.530;2023-12-20T03:11:28;5.61;99.99
66096;SHT31;53861;53.422;14.530;2023-12-20T03:13:55;5.66;99.96
66096;SHT31;53861;53.422;14.530;2023-12-20T03:16:27;5.69;99.99
66096;SHT31;53861;53.422;14.530;2023-12-20T03:19:00;5.67;99.94
66096;SHT31;53861;53.422;14.530;2023-12-20T03:21:27;5.64;99.89
66096;SHT31;53861;53.422;14.530;2023-12-20T03:24:00;5.69;99.91
66096;SHT31;53861;53.422;14.530;2023-12-20T03:26:30;5.61;99.84
66096;SHT31;53861;53.422;14.530;2023-12-20T03:29:01;5.57;99.98
66096;SHT31;53861;53.422;14.530;2023-12-20T03:31:31;5.54;99.99
66096;SHT31;53861;53.422;14.530;2023-12-20T03:34:02;5.44;99.68
66096;SHT31;53861;53.422;14.530;2023-12-20T03:36:30;5.37;99.99
66096;SHT31;53861;53.422;14.530;2023-12-20T03:39:00;5.37;99.99
66096;SHT31;53861;53.422;14.530;2023-12-20T03:41:35;5.26;99.98
66096;SHT31;53861;53.422;14.530;2023-12-20T03:44:05;5.27;99.99
66096;SHT31;53861;53.422;14.530;2023-12-20T03:46:32;5.20;99.99
66096;SHT31;53861;53.422;14.530;2023-12-20T03:49:00;5.16;99.99
66096;SHT31;53861;53.422;14.530;2023-12-20T03:51:27;5.19;99.99
66096;SHT31;53861;53.422;14.530;2023-12-20T03:53:57;5.13;99.99
66096;SHT31;53861;53.422;14.530;2023-12-20T03:56:33;5.05;99.99
66096;SHT31;53861;53.422;14.530;2023-12-20T03:59:07;4.99;99.99
66096;SHT31;53861;53.422;14.530;2023-12-20T04:01:35;4.99;99.99
66096;SHT31;53861;53.422;14.530;2023-12-20T04:04:02;4.98;99.99
66096;SHT31;53861;53.422;14.530;2023-12-20T04:06:33;4.91;99.99
66096;SHT31;53861;53.422;14.530;2023-12-20T04:09:00;4.92;99.99
66096;SHT31;53861;53.422;14.530;2023-12-20T04:11:34;4.82;99.99
66096;SHT31;53861;53.422;14.530;2023-12-20T04:14:07;4.84;99.99
66096;SHT31;53861;53.422;14.530;2023-12-20T04:16:36;4.85;99.99
66096;SHT31;53861;53.422;14.530;2023-12-20T04:19:06;4.85;99.99
66096;SHT31;53861;53.422;14.530;2023-12-20T04:21:36;4.82;99.99
66096;SHT31;53861;53.422;14.530;2023-12-20T04:24:04;4.76;99.99
66096;SHT31;53861;53.422;14.530;2023-12-20T04:26:35;4.68;99.99
66096;SHT31;53861;53.422;14.530;2023-12-20T04:29:04;4.68;99.99
66096;SHT31;53861;53.422;14.530;2023-12-20T04:31:40;4.69;99.99
66096;SHT31;53861;53.422;14.530;2023-12-20T04:34:13;4.67;99.99
66096;SHT31;53861;53.422;14.530;2023-12-20T04:36:43;4.65;99.99
66096;SHT31;53861;53.422;14.530;2023-12-20T04:39:13;4.58;99.99
66096;SHT31;53861;53.422;14.530;2023-12-20T04:41:42;4.65;99.99
66096;SHT31;53861;53.422;14.530;2023-12-20T04:44:12;4.61;99.99
66096;SHT31;53861;53.422;14.530;2023-12-20T04:46:39;4.54;99.99
66096;SHT31;53861;53.422;14.530;2023-12-20T04:49:11;4.55;99.99
66096;SHT31;53861;53.422;14.530;2023-12-20T04:51:43;4.51;99.99
66096;SHT31;53861;53.422;14.530;2023-12-20T04:54:10;4.55;99.99
66096;SHT31;53861;53.422;14.530;2023-12-20T04:56:38;4.53;99.99
66096;SHT31;53861;53.422;14.530;2023-12-20T04:59:07;4.43;99.98
66096;SHT31;53861;53.422;14.530;2023-12-20T05:01:34;4.44;99.99
66096;SHT31;53861;53.422;14.530;2023-12-20T05:04:03;4.37;99.99
66096;SHT31;53861;53.422;14.530;2023-12-20T05:06:31;4.38;99.99
66096;SHT31;53861;53.422;14.530;2023-12-20T05:09:00;4.36;99.91
66096;SHT31;53861;53.422;14.530;2023-12-20T05:11:31;4.34;99.99
66096;SHT31;53861;53.422;14.530;2023-12-20T05:14:04;4.32;99.92
66096;SHT31;53861;53.422;14.530;2023-12-20T05:16:37;4.25;99.99
66096;SHT31;53861;53.422;14.530;2023-12-20T05:19:11;4.29;99.99
66096;SHT31;53861;53.422;14.530;2023-12-20T05:21:40;4.23;99.99
66096;SHT31;53861;53.422;14.530;2023-12-20T05:24:09;4.23;99.99
66096;SHT31;53861;53.422;14.530;2023-12-20T05:26:43;4.25;99.99
66096;SHT31;53861;53.422;14.530;2023-12-20T05:29:13;4.27;99.99
66096;SHT31;53861;53.422;14.530;2023-12-20T05:31:47;4.30;99.99
66096;SHT31;53861;53.422;14.530;2023-12-20T05:34:14;4.43;99.99
66096;SHT31;53861;53.422;14.530;2023-12-20T05:36:46;4.55;99.99
66096;SHT31;53861;53.422;14.530;2023-12-20T05:39:15;4.58;99.99
66096;SHT31;53861;53.422;14.530;2023-12-20T05:41:48;4.67;99.96
66096;SHT31;53861;53.422;14.530;2023-12-20T05:44:15;4.71;99.83
66096;SHT31;53861;53.422;14.530;2023-12-20T05:46:55;4.71;99.79
66096;SHT31;53861;53.422;14.530;2023-12-20T05:49:30;4.79;99.94
66096;SHT31;53861;53.422;14.530;2023-12-20T05:51:59;4.85;99.82
66096;SHT31;53861;53.422;14.530;2023-12-20T05:54:26;4.84;99.37
66096;SHT31;53861;53.422;14.530;2023-12-20T05:56:59;4.86;99.59
66096;SHT31;53861;53.422;14.530;2023-12-20T05:59:29;4.86;99.52
66096;SHT31;53861;53.422;14.530;2023-12-20T06:01:58;4.81;99.43
66096;SHT31;53861;53.422;14.530;2023-12-20T06:04:28;4.79;99.53
66096;SHT31;53861;53.422;14.530;2023-12-20T06:06:55;4.88;99.48
66096;SHT31;53861;53.422;14.530;2023-12-20T06:09:28;4.84;99.36
66096;SHT31;53861;53.422;14.530;2023-12-20T06:11:59;4.84;99.58
66096;SHT31;53861;53.422;14.530;2023-12-20T06:14:28;4.85;99.53
66096;SHT31;53861;53.422;14.530;2023-12-20T06:16:58;4.79;99.45
66096;SHT31;53861;53.422;14.530;2023-12-20T06:19:37;4.81;99.26
66096;SHT31;53861;53.422;14.530;2023-12-20T06:22:14;4.76;99.29
66096;SHT31;53861;53.422;14.530;2023-12-20T06:24:47;4.69;99.16
66096;SHT31;53861;53.422;14.530;2023-12-20T06:27:20;4.62;99.06
66096;SHT31;53861;53.422;14.530;2023-12-20T06:29:47;4.60;99.19
66096;SHT31;53861;53.422;14.530;2023-12-20T06:32:19;4.64;99.31
66096;SHT31;53861;53.422;14.530;2023-12-20T06:34:51;4.67;99.32
66096;SHT31;53861;53.422;14.530;2023-12-20T06:37:23;4.68;99.35
66096;SHT31;53861;53.422;14.530;2023-12-20T06:39:50;4.69;99.09
66096;SHT31;53861;53.422;14.530;2023-12-20T06:42:20;4.76;99.06
66096;SHT31;53861;53.422;14.530;2023-12-20T06:44:52;4.74;99.12
66096;SHT31;53861;53.422;14.530;2023-12-20T06:47:22;4.74;99.04
66096;SHT31;53861;53.422;14.530;2023-12-20T06:49:52;4.84;98.98
66096;SHT31;53861;53.422;14.530;2023-12-20T06:52:19;4.82;98.92
66096;SHT31;53861;53.422;14.530;2023-12-20T06:54:56;4.89;99.25
66096;SHT31;53861;53.422;14.530;2023-12-20T06:57:26;4.93;98.76
66096;SHT31;53861;53.422;14.530;2023-12-20T06:59:56;4.92;98.66
66096;SHT31;53861;53.422;14.530;2023-12-20T07:02:27;5.00;99.20
66096;SHT31;53861;53.422;14.530;2023-12-20T07:05:02;4.93;98.38
66096;SHT31;53861;53.422;14.530;2023-12-20T07:07:33;5.02;99.15
66096;SHT31;53861;53.422;14.530;2023-12-20T07:10:06;5.06;98.95
66096;SHT31;53861;53.422;14.530;2023-12-20T07:12:38;5.15;98.85
66096;SHT31;53861;53.422;14.530;2023-12-20T07:15:28;5.12;98.73
66096;SHT31;53861;53.422;14.530;2023-12-20T07:18:14;5.11;98.74
66096;SHT31;53861;53.422;14.530;2023-12-20T07:20:52;5.16;98.65
66096;SHT31;53861;53.422;14.530;2023-12-20T07:23:24;5.18;98.71
66096;SHT31;53861;53.422;14.530;2023-12-20T07:25:55;5.22;98.63
66096;SHT31;53861;53.422;14.530;2023-12-20T07:28:26;5.25;98.55
66096;SHT31;53861;53.422;14.530;2023-12-20T07:30:54;5.27;98.47
66096;SHT31;53861;53.422;14.530;2023-12-20T07:33:23;5.23;98.55
66096;SHT31;53861;53.422;14.530;2023-12-20T07:35:52;5.26;98.54
66096;SHT31;53861;53.422;14.530;2023-12-20T07:38:25;5.32;98.60
66096;SHT31;53861;53.422;14.530;2023-12-20T07:40:53;5.35;98.30
66096;SHT31;53861;53.422;14.530;2023-12-20T07:43:21;5.35;98.30
66096;SHT31;53861;53.422;14.530;2023-12-20T07:45:48;5.35;98.26
66096;SHT31;53861;53.422;14.530;2023-12-20T07:48:19;5.35;97.99
66096;SHT31;53861;53.422;14.530;2023-12-20T07:50:55;5.43;97.96
66096;SHT31;53861;53.422;14.530;2023-12-20T07:53:23;5.46;97.85
66096;SHT31;53861;53.422;14.530;2023-12-20T07:55:50;5.44;98.09
66096;SHT31;53861;53.422;14.530;2023-12-20T07:58:18;5.39;97.87
66096;SHT31;53861;53.422;14.530;2023-12-20T08:00:46;5.35;97.89
66096;SHT31;53861;53.422;14.530;2023-12-20T08:03:13;5.35;98.36
66096;SHT31;53861;53.422;14.530;2023-12-20T08:05:40;5.39;98.08
66096;SHT31;53861;53.422;14.530;2023-12-20T08:08:09;5.47;97.86
66096;SHT31;53861;53.422;14.530;2023-12-20T08:10:36;5.44;98.05
66096;SHT31;53861;53.422;14.530;2023-12-20T08:13:07;5.49;98.05
66096;SHT31;53861;53.422;14.530;2023-12-20T08:15:34;5.50;97.91
66096;SHT31;53861;53.422;14.530;2023-12-20T08:18:05;5.44;98.20
66096;SHT31;53861;53.422;14.530;2023-12-20T08:20:32;5.49;98.02
66096;SHT31;53861;53.422;14.530;2023-12-20T08:22:59;5.43;98.14
66096;SHT31;53861;53.422;14.530;2023-12-20T08:25:29;5.47;98.17
66096;SHT31;53861;53.422;14.530;2023-12-20T08:27:59;5.42;98.31
66096;SHT31;53861;53.422;14.530;2023-12-20T08:30:26;5.50;98.47
66096;SHT31;53861;53.422;14.530;2023-12-20T08:33:00;5.44;98.24
66096;SHT31;53861;53.422;14.530;2023-12-20T08:35:27;5.40;98.04
66096;SHT31;53861;53.422;14.530;2023-12-20T08:37:57;5.46;98.09
66096;SHT31;53861;53.422;14.530;2023-12-20T08:40:25;5.43;98.02
66096;SHT31;53861;53.422;14.530;2023-12-20T08:42:53;5.42;97.82
66096;SHT31;53861;53.422;14.530;2023-12-20T08:45:21;5.39;98.36
66096;SHT31;53861;53.422;14.530;2023-12-20T08:47:48;5.40;98.41
66096;SHT31;53861;53.422;14.530;2023-12-20T08:50:15;5.35;98.21
66096;SHT31;53861;53.422;14.530;2023-12-20T08:52:43;5.33;98.39
66096;SHT31;53861;53.422;14.530;2023-12-20T08:55:10;5.29;97.98
66096;SHT31;53861;53.422;14.530;2023-12-20T08:57:38;5.33;98.44
66096;SHT31;53861;53.422;14.530;2023-12-20T09:00:08;5.35;98.69
66096;SHT31;53861;53.422;14.530;2023-12-20T09:02:36;5.37;98.69
66096;SHT31;53861;53.422;14.530;2023-12-20T09:05:04;5.44;98.46
66096;SHT31;53861;53.422;14.530;2023-12-20T09:07:32;5.44;98.13
66096;SHT31;53861;53.422;14.530;2023-12-20T09:09:59;5.43;98.29
66096;SHT31;53861;53.422;14.530;2023-12-20T09:12:26;5.47;98.33
66096;SHT31;53861;53.422;14.530;2023-12-20T09:14:54;5.46;98.30
66096;SHT31;53861;53.422;14.530;2023-12-20T09:17:22;5.50;98.35
66096;SHT31;53861;53.422;14.530;2023-12-20T09:19:50;5.49;98.30
66096;SHT31;53861;53.422;14.530;2023-12-20T09:22:19;5.50;98.24
66096;SHT31;53861;53.422;14.530;2023-12-20T09:24:47;5.49;98.33
66096;SHT31;53861;53.422;14.530;2023-12-20T09:27:14;5.54;98.52
66096;SHT31;53861;53.422;14.530;2023-12-20T09:29:41;5.53;98.27
66096;SHT31;53861;53.422;14.530;2023-12-20T09:32:09;5.53;98.69
66096;SHT31;53861;53.422;14.530;2023-12-20T09:34:37;5.57;98.54
66096;SHT31;53861;53.422;14.530;2023-12-20T09:37:04;5.51;98.37
66096;SHT31;53861;53.422;14.530;2023-12-20T09:39:33;5.64;98.22
66096;SHT31;53861;53.422;14.530;2023-12-20T09:42:01;5.64;98.19
66096;SHT31;53861;53.422;14.530;2023-12-20T09:44:29;5.67;98.03
66096;SHT31;53861;53.422;14.530;2023-12-20T09:46:57;5.66;97.71
66096;SHT31;53861;53.422;14.530;2023-12-20T09:49:26;5.73;98.24
66096;SHT31;53861;53.422;14.530;2023-12-20T09:51:56;5.75;98.05
66096;SHT31;53861;53.422;14.530;2023-12-20T09:54:23;5.80;97.89
66096;SHT31;53861;53.422;14.530;2023-12-20T09:56:51;5.83;97.92
66096;SHT31;53861;53.422;14.530;2023-12-20T09:59:18;5.78;97.92
66096;SHT31;53861;53.422;14.530;2023-12-20T10:01:45;5.86;97.86
66096;SHT31;53861;53.422;14.530;2023-12-20T10:04:13;5.93;97.91
66096;SHT31;53861;53.422;14.530;2023-12-20T10:06:41;6.08;97.93
66096;SHT31;53861;53.422;14.530;2023-12-20T10:09:10;6.02;97.80
66096;SHT31;53861;53.422;14.530;2023-12-20T10:11:39;6.15;97.33
66096;SHT31;53861;53.422;14.530;2023-12-20T10:14:06;6.14;97.37
66096;SHT31;53861;53.422;14.530;2023-12-20T10:16:34;6.26;97.55
66096;SHT31;53861;53.422;14.530;2023-12-20T10:19:01;6.39;97.28
66096;SHT31;53861;53.422;14.530;2023-12-20T10:21:28;6.46;96.97
66096;SHT31;53861;53.422;14.530;2023-12-20T10:23:56;6.25;97.08
66096;SHT31;53861;53.422;14.530;2023-12-20T10:26:26;6.12;96.98
66096;SHT31;53861;53.422;14.530;2023-12-20T10:28:55;6.17;97.56
66096;SHT31;53861;53.422;14.530;2023-12-20T10:31:26;6.17;97.27
66096;SHT31;53861;53.422;14.530;2023-12-20T10:33:56;6.20;97.17
66096;SHT31;53861;53.422;14.530;2023-12-20T10:36:25;6.05;97.37
66096;SHT31;53861;53.422;14.530;2023-12-20T10:38:54;6.12;97.16
66096;SHT31;53861;53.422;14.530;2023-12-20T10:41:26;6.21;97.05
66096;SHT31;53861;53.422;14.530;2023-12-20T10:44:00;6.31;96.82
66096;SHT31;53861;53.422;14.530;2023-12-20T10:46:27;6.26;96.72
66096;SHT31;53861;53.422;14.530;2023-12-20T10:48:56;6.24;96.41
66096;SHT31;53861;53.422;14.530;2023-12-20T10:51:24;6.24;96.81
66096;SHT31;53861;53.422;14.530;2023-12-20T10:53:53;6.18;96.82
66096;SHT31;53861;53.422;14.530;2023-12-20T10:56:20;6.17;96.81
66096;SHT31;53861;53.422;14.530;2023-12-20T10:58:50;6.24;96.52
66096;SHT31;53861;53.422;14.530;2023-12-20T11:01:19;6.32;96.47
66096;SHT31;53861;53.422;14.530;2023-12-20T11:03:49;6.49;96.10
66096;SHT31;53861;53.422;14.530;2023-12-20T11:06:29;6.89;95.23
66096;SHT31;53861;53.422;14.530;2023-12-20T11:09:02;6.72;94.85
66096;SHT31;53861;53.422;14.530;2023-12-20T11:11:38;6.75;95.75
66096;SHT31;53861;53.422;14.530;2023-12-20T11:14:16;6.68;95.19
66096;SHT31;53861;53.422;14.530;2023-12-20T11:16:45;6.63;95.51
66096;SHT31;53861;53.422;14.530;2023-12-20T11:19:12;6.66;95.56
66096;SHT31;53861;53.422;14.530;2023-12-20T11:21:41;6.69;95.91
66096;SHT31;53861;53.422;14.530;2023-12-20T11:24:09;6.63;95.18
66096;SHT31;53861;53.422;14.530;2023-12-20T11:26:37;6.66;95.00
66096;SHT31;53861;53.422;14.530;2023-12-20T11:29:30;6.86;95.22
66096;SHT31;53861;53.422;14.530;2023-12-20T11:31:59;6.72;95.19
66096;SHT31;53861;53.422;14.530;2023-12-20T11:34:27;6.80;95.26
66096;SHT31;53861;53.422;14.530;2023-12-20T11:36:59;6.87;95.24
66096;SHT31;53861;53.422;14.530;2023-12-20T11:39:27;7.82;93.86
66096;SHT31;53861;53.422;14.530;2023-12-20T11:41:56;9.05;91.48
66096;SHT31;53861;53.422;14.530;2023-12-20T11:44:25;9.01;89.32
66096;SHT31;53861;53.422;14.530;2023-12-20T11:46:54;9.33;89.73
66096;SHT31;53861;53.422;14.530;2023-12-20T11:49:25;8.28;89.62
66096;SHT31;53861;53.422;14.530;2023-12-20T11:51:52;7.67;92.32
66096;SHT31;53861;53.422;14.530;2023-12-20T11:54:19;7.65;92.48
66096;SHT31;53861;53.422;14.530;2023-12-20T11:56:47;7.28;93.39
66096;SHT31;53861;53.422;14.530;2023-12-20T11:59:15;7.37;93.46
66096;SHT31;53861;53.422;14.530;2023-12-20T12:01:48;7.31;93.13
66096;SHT31;53861;53.422;14.530;2023-12-20T12:04:17;7.08;93.72
66096;SHT31;53861;53.422;14.530;2023-12-20T12:06:45;7.00;93.08
66096;SHT31;53861;53.422;14.530;2023-12-20T12:09:13;6.80;93.97
66096;SHT31;53861;53.422;14.530;2023-12-20T12:11:41;6.76;94.36
66096;SHT31;53861;53.422;14.530;2023-12-20T12:14:08;6.86;93.99
66096;SHT31;53861;53.422;14.530;2023-12-20T12:16:36;6.71;94.77
66096;SHT31;53861;53.422;14.530;2023-12-20T12:19:03;6.55;94.82
66096;SHT31;53861;53.422;14.530;2023-12-20T12:21:32;6.63;94.66
66096;SHT31;53861;53.422;14.530;2023-12-20T12:24:08;6.52;95.37
66096;SHT31;53861;53.422;14.530;2023-12-20T12:26:36;6.53;95.50
66096;SHT31;53861;53.422;14.530;2023-12-20T12:29:03;6.46;95.47
66096;SHT31;53861;53.422;14.530;2023-12-20T12:31:30;6.43;95.33
66096;SHT31;53861;53.422;14.530;2023-12-20T12:33:58;6.48;95.44
66096;SHT31;53861;53.422;14.530;2023-12-20T12:36:25;6.38;96.18
66096;SHT31;53861;53.422;14.530;2023-12-20T12:38:56;6.32;95.89
66096;SHT31;53861;53.422;14.530;2023-12-20T12:41:23;6.26;96.27
66096;SHT31;53861;53.422;14.530;2023-12-20T12:43:50;6.26;96.14
66096;SHT31;53861;53.422;14.530;2023-12-20T12:46:18;6.22;96.99
66096;SHT31;53861;53.422;14.530;2023-12-20T12:48:45;6.24;96.59
66096;SHT31;53861;53.422;14.530;2023-12-20T12:51:12;6.25;96.59
66096;SHT31;53861;53.422;14.530;2023-12-20T12:53:40;6.25;96.51
66096;SHT31;53861;53.422;14.530;2023-12-20T12:56:08;6.24;96.98
66096;SHT31;53861;53.422;14.530;2023-12-20T12:58:36;6.15;96.79
66096;SHT31;53861;53.422;14.530;2023-12-20T13:01:03;6.11;96.73
66096;SHT31;53861;53.422;14.530;2023-12-20T13:03:30;6.15;96.58
66096;SHT31;53861;53.422;14.530;2023-12-20T13:05:58;6.05;96.72
66096;SHT31;53861;53.422;14.530;2023-12-20T13:08:25;6.05;96.95
66096;SHT31;53861;53.422;14.530;2023-12-20T13:10:53;6.12;96.75
66096;SHT31;53861;53.422;14.530;2023-12-20T13:13:22;6.08;96.62
66096;SHT31;53861;53.422;14.530;2023-12-20T13:15:50;6.10;96.67
66096;SHT31;53861;53.422;14.530;2023-12-20T13:18:20;6.20;96.72
66096;SHT31;53861;53.422;14.530;2023-12-20T13:20:48;6.17;96.69
66096;SHT31;53861;53.422;14.530;2023-12-20T13:23:15;6.07;96.54
66096;SHT31;53861;53.422;14.530;2023-12-20T13:25:44;6.12;96.59
66096;SHT31;53861;53.422;14.530;2023-12-20T13:28:13;6.15;96.46
66096;SHT31;53861;53.422;14.530;2023-12-20T13:30:42;6.08;95.90
66096;SHT31;53861;53.422;14.530;2023-12-20T13:33:10;6.17;96.18
66096;SHT31;53861;53.422;14.530;2023-12-20T13:35:38;6.17;95.55
66096;SHT31;53861;53.422;14.530;2023-12-20T13:38:05;6.15;95.49
66096;SHT31;53861;53.422;14.530;2023-12-20T13:40:33;6.21;94.82
66096;SHT31;53861;53.422;14.530;2023-12-20T13:43:01;6.15;95.46
66096;SHT31;53861;53.422;14.530;2023-12-20T13:45:28;6.07;94.82
66096;SHT31;53861;53.422;14.530;2023-12-20T13:47:58;6.05;94.72
66096;SHT31;53861;53.422;14.530;2023-12-20T13:50:25;6.04;94.92
66096;SHT31;53861;53.422;14.530;2023-12-20T13:52:53;6.07;95.25
66096;SHT31;53861;53.422;14.530;2023-12-20T13:55:20;6.15;94.98
66096;SHT31;53861;53.422;14.530;2023-12-20T13:57:51;6.18;94.72
66096;SHT31;53861;53.422;14.530;2023-12-20T14:00:18;6.14;93.57
66096;SHT31;53861;53.422;14.530;2023-12-20T14:02:46;6.11;93.12
66096;SHT31;53861;53.422;14.530;2023-12-20T14:05:15;6.20;93.08
66096;SHT31;53861;53.422;14.530;2023-12-20T14:07:43;6.14;92.26
66096;SHT31;53861;53.422;14.530;2023-12-20T14:10:11;6.02;92.09
66096;SHT31;53861;53.422;14.530;2023-12-20T14:12:39;5.97;92.05
66096;SHT31;53861;53.422;14.530;2023-12-20T14:15:07;5.80;92.10
66096;SHT31;53861;53.422;14.530;2023-12-20T14:17:38;5.73;91.29
66096;SHT31;53861;53.422;14.530;2023-12-20T14:20:06;5.66;91.75
66096;SHT31;53861;53.422;14.530;2023-12-20T14:22:35;5.47;92.28
66096;SHT31;53861;53.422;14.530;2023-12-20T14:25:05;5.40;92.24
66096;SHT31;53861;53.422;14.530;2023-12-20T14:27:33;5.32;91.97
66096;SHT31;53861;53.422;14.530;2023-12-20T14:30:00;5.32;92.53
66096;SHT31;53861;53.422;14.530;2023-12-20T14:32:28;5.25;92.76
66096;SHT31;53861;53.422;14.530;2023-12-20T14:34:55;5.19;92.67
66096;SHT31;53861;53.422;14.530;2023-12-20T14:37:22;5.16;92.77
66096;SHT31;53861;53.422;14.530;2023-12-20T14:39:51;5.20;92.69
66096;SHT31;53861;53.422;14.530;2023-12-20T14:42:18;5.13;93.01
66096;SHT31;53861;53.422;14.530;2023-12-20T14:44:45;5.06;93.62
66096;SHT31;53861;53.422;14.530;2023-12-20T14:47:13;5.00;93.64
66096;SHT31;53861;53.422;14.530;2023-12-20T14:49:41;4.95;93.73
66096;SHT31;53861;53.422;14.530;2023-12-20T14:52:08;4.92;94.00
66096;SHT31;53861;53.422;14.530;2023-12-20T14:54:37;4.91;94.29
66096;SHT31;53861;53.422;14.530;2023-12-20T14:57:06;4.91;94.03
66096;SHT31;53861;53.422;14.530;2023-12-20T14:59:34;4.92;94.42
66096;SHT31;53861;53.422;14.530;2023-12-20T15:02:01;4.86;94.36
66096;SHT31;53861;53.422;14.530;2023-12-20T15:04:30;4.86;94.62
66096;SHT31;53861;53.422;14.530;2023-12-20T15:06:58;4.78;94.78
66096;SHT31;53861;53.422;14.530;2023-12-20T15:09:26;4.76;94.36
66096;SHT31;53861;53.422;14.530;2023-12-20T15:11:55;4.69;94.83
66096;SHT31;53861;53.422;14.530;2023-12-20T15:14:24;4.74;94.34
66096;SHT31;53861;53.422;14.530;2023-12-20T15:16:51;4.78;94.06
66096;SHT31;53861;53.422;14.530;2023-12-20T15:19:18;4.74;94.38
66096;SHT31;53861;53.422;14.530;2023-12-20T15:21:46;4.71;94.49
66096;SHT31;53861;53.422;14.530;2023-12-20T15:24:13;4.68;94.29
66096;SHT31;53861;53.422;14.530;2023-12-20T15:26:42;4.74;94.24
66096;SHT31;53861;53.422;14.530;2023-12-20T15:29:10;4.84;93.15
66096;SHT31;53861;53.422;14.530;2023-12-20T15:31:43;4.79;93.20
66096;SHT31;53861;53.422;14.530;2023-12-20T15:34:11;4.76;93.29
66096;SHT31;53861;53.422;14.530;2023-12-20T15:36:39;4.78;93.04
66096;SHT31;53861;53.422;14.530;2023-12-20T15:39:06;4.76;93.23
66096;SHT31;53861;53.422;14.530;2023-12-20T15:41:35;4.76;93.58
66096;SHT31;53861;53.422;14.530;2023-12-20T15:44:02;4.76;93.44
66096;SHT31;53861;53.422;14.530;2023-12-20T15:46:29;4.79;93.80